createdAt,value
2018-05-24T00:03:32.200Z,65.60
2018-05-24T00:07:25.445Z,65.60
2018-05-24T00:11:19.309Z,65.60
2018-05-24T00:15:12.782Z,66.00
2018-05-24T00:19:05.949Z,66.00
2018-05-24T00:22:59.070Z,65.50
2018-05-24T00:26:52.262Z,66.10
2018-05-24T00:30:45.432Z,65.80
2018-05-24T00:34:38.730Z,66.20
2018-05-24T00:38:31.625Z,66.70
2018-05-24T00:42:25.770Z,66.80
2018-05-24T00:46:18.939Z,67.00
2018-05-24T00:50:12.945Z,67.00
2018-05-24T00:54:08.020Z,67.00
2018-05-24T00:58:01.565Z,67.00
2018-05-24T01:01:54.745Z,67.50
2018-05-24T01:05:48.067Z,67.70
2018-05-24T01:09:41.371Z,68.30
2018-05-24T01:13:34.544Z,69.00
2018-05-24T01:17:27.686Z,69.90
2018-05-24T01:21:20.844Z,70.70
2018-05-24T01:25:14.828Z,71.60
2018-05-24T01:29:08.009Z,71.60
2018-05-24T01:33:01.171Z,71.30
2018-05-24T01:37:06.444Z,70.80
2018-05-24T01:41:01.289Z,70.40
2018-05-24T01:44:55.241Z,69.90
2018-05-24T01:48:48.510Z,69.90
2018-05-24T01:52:42.070Z,69.60
2018-05-24T01:56:35.257Z,69.10
2018-05-24T02:00:28.469Z,68.70
2018-05-24T02:04:22.385Z,68.00
2018-05-24T02:08:15.554Z,68.00
2018-05-24T02:12:08.686Z,68.00
2018-05-24T02:16:01.882Z,67.40
2018-05-24T02:19:55.252Z,68.60
2018-05-24T02:23:48.629Z,69.20
2018-05-24T02:27:42.020Z,69.60
2018-05-24T02:31:35.225Z,68.40
2018-05-24T02:35:28.361Z,68.30
2018-05-24T02:39:21.755Z,67.60
2018-05-24T02:43:15.655Z,67.70
2018-05-24T02:47:08.789Z,67.70
2018-05-24T02:51:03.096Z,67.50
2018-05-24T02:54:56.977Z,67.50
2018-05-24T02:58:51.476Z,67.60
2018-05-24T03:02:48.817Z,67.60
2018-05-24T03:06:42.415Z,70.40
2018-05-24T03:10:35.641Z,70.50
2018-05-24T03:14:29.641Z,70.80
2018-05-24T03:18:22.730Z,70.80
2018-05-24T03:22:16.328Z,70.30
2018-05-24T03:26:09.877Z,71.00
2018-05-24T03:30:04.065Z,89.60
2018-05-24T03:33:57.242Z,89.60
2018-05-24T03:37:51.073Z,91.60
2018-05-24T03:41:44.168Z,92.80
2018-05-24T03:45:38.357Z,90.50
2018-05-24T03:49:31.590Z,90.50
2018-05-24T03:53:24.776Z,89.10
2018-05-24T03:57:18.605Z,87.70
2018-05-24T04:01:24.029Z,86.40
2018-05-24T04:05:17.420Z,85.00
2018-05-24T04:09:10.577Z,84.10
2018-05-24T04:13:03.908Z,85.30
2018-05-24T04:16:57.343Z,87.30
2018-05-24T04:20:51.410Z,90.10
2018-05-24T04:24:44.673Z,88.60
2018-05-24T04:28:39.551Z,90.00
2018-05-24T04:32:33.464Z,87.80
2018-05-24T04:36:26.680Z,87.80
2018-05-24T04:40:19.831Z,86.10
2018-05-24T04:44:13.006Z,85.50
2018-05-24T04:48:08.256Z,85.20
2018-05-24T04:52:02.878Z,83.90
2018-05-24T04:55:56.208Z,83.90
2018-05-24T04:59:50.256Z,85.50
2018-05-24T05:03:43.501Z,85.50
2018-05-24T05:07:36.703Z,85.50
2018-05-24T05:11:29.905Z,86.60
2018-05-24T05:15:26.445Z,86.50
2018-05-24T05:19:20.486Z,87.30
2018-05-24T05:23:13.773Z,87.00
2018-05-24T05:27:08.217Z,86.50
2018-05-24T05:31:02.969Z,86.50
2018-05-24T05:34:56.126Z,86.20
2018-05-24T05:38:49.291Z,86.70
2018-05-24T05:42:43.343Z,85.20
2018-05-24T05:46:37.940Z,87.40
2018-05-24T05:50:33.884Z,89.00
2018-05-24T05:58:52.254Z,89.20
2018-05-24T06:02:45.412Z,88.70
2018-05-24T06:06:38.585Z,90.50
2018-05-24T06:10:33.043Z,90.70
2018-05-24T06:14:26.380Z,90.70
2018-05-24T06:18:19.689Z,91.30
2018-05-24T06:22:12.954Z,90.80
2018-05-24T06:26:06.870Z,91.30
2018-05-24T06:30:00.588Z,91.30
2018-05-24T06:33:54.567Z,90.90
2018-05-24T06:41:48.528Z,90.00
2018-05-24T06:45:48.570Z,90.00
2018-05-24T06:49:42.975Z,90.40
2018-05-24T06:53:36.361Z,90.30
2018-05-24T06:57:29.497Z,88.90
2018-05-24T07:01:22.847Z,88.40
2018-05-24T07:05:18.197Z,88.50
2018-05-24T07:09:11.356Z,87.50
2018-05-24T07:13:04.488Z,88.40
2018-05-24T07:16:57.686Z,88.50
2018-05-24T07:25:15.077Z,85.60
2018-05-24T07:29:08.391Z,84.80
2018-05-24T07:33:03.226Z,86.30
2018-05-24T07:36:58.004Z,86.60
2018-05-24T07:40:51.257Z,87.00
2018-05-24T07:44:46.411Z,88.30
2018-05-24T07:48:40.062Z,89.40
2018-05-24T07:52:33.000Z,89.40
2018-05-24T07:56:26.244Z,88.40
2018-05-24T08:00:20.857Z,89.00
2018-05-24T08:04:14.111Z,89.50
2018-05-24T08:08:07.379Z,89.40
2018-05-24T08:12:01.606Z,90.40
2018-05-24T08:15:54.801Z,90.30
2018-05-24T08:19:48.134Z,91.30
2018-05-24T08:23:41.341Z,91.10
2018-05-24T08:27:36.673Z,90.90
2018-05-24T08:31:29.839Z,90.80
2018-05-24T08:35:22.996Z,90.10
2018-05-24T08:39:16.038Z,88.90
2018-05-24T08:43:11.455Z,88.90
2018-05-24T08:47:04.696Z,88.10
2018-05-24T08:50:57.825Z,87.10
2018-05-24T08:54:51.817Z,87.40
2018-05-24T08:58:45.190Z,87.40
2018-05-24T09:02:38.435Z,85.00
2018-05-24T09:06:31.691Z,82.80
2018-05-24T09:10:25.475Z,83.70
2018-05-24T09:14:19.462Z,84.20
2018-05-24T09:18:13.408Z,88.20
2018-05-24T09:22:06.719Z,88.10
2018-05-24T09:26:00.030Z,87.20
2018-05-24T09:29:53.293Z,88.40
2018-05-24T09:33:46.504Z,88.20
2018-05-24T09:37:39.422Z,89.60
2018-05-24T09:41:32.818Z,89.10
2018-05-24T09:45:26.012Z,88.90
2018-05-24T09:49:23.660Z,87.70
2018-05-24T09:53:16.958Z,87.50
2018-05-24T09:57:10.295Z,87.10
2018-05-24T10:01:03.499Z,87.60
2018-05-24T10:04:57.445Z,85.80
2018-05-24T10:08:51.907Z,85.70
2018-05-24T10:12:45.108Z,85.80
2018-05-24T10:16:39.145Z,83.80
2018-05-24T10:20:33.484Z,83.30
2018-05-24T10:24:29.381Z,81.80
2018-05-24T10:28:22.830Z,81.20
2018-05-24T10:32:16.817Z,80.80
2018-05-24T10:36:13.342Z,80.00
2018-05-24T10:40:07.984Z,78.40
2018-05-24T10:44:02.033Z,75.90
2018-05-24T10:47:56.165Z,75.70
2018-05-24T10:51:49.287Z,75.80
2018-05-24T10:55:42.697Z,75.70
2018-05-24T10:59:35.953Z,75.30
2018-05-24T11:03:31.489Z,72.70
2018-05-24T11:07:26.072Z,72.70
2018-05-24T11:11:19.955Z,72.10
2018-05-24T11:15:15.038Z,73.80
2018-05-24T11:19:09.512Z,74.50
2018-05-24T11:23:03.031Z,72.80
2018-05-24T11:26:57.008Z,70.80
2018-05-24T11:30:50.617Z,70.80
2018-05-24T11:34:44.068Z,71.00
2018-05-24T11:38:37.840Z,68.20
2018-05-24T11:42:33.359Z,67.80
2018-05-24T11:46:26.819Z,68.20
2018-05-24T11:50:21.244Z,69.20
2018-05-24T11:54:15.077Z,69.20
2018-05-24T11:58:08.244Z,69.40
2018-05-24T12:02:01.344Z,68.10
2018-05-24T12:05:55.037Z,65.30
2018-05-24T12:09:48.681Z,65.00
2018-05-24T12:13:42.716Z,62.70
2018-05-24T12:17:41.300Z,62.90
2018-05-24T12:21:35.376Z,62.40
2018-05-24T12:25:33.059Z,61.40
2018-05-24T12:29:26.288Z,62.70
2018-05-24T12:33:20.790Z,63.10
2018-05-24T12:37:14.186Z,61.80
2018-05-24T12:41:07.581Z,61.10
2018-05-24T12:45:01.100Z,61.00
2018-05-24T12:48:54.644Z,60.50
2018-05-24T12:52:47.723Z,59.70
2018-05-24T12:56:40.906Z,60.10
2018-05-24T13:00:34.129Z,59.70
2018-05-24T13:04:29.042Z,62.70
2018-05-24T13:08:24.617Z,64.60
2018-05-24T13:12:18.827Z,64.60
2018-05-24T13:16:15.045Z,67.00
2018-05-24T13:20:10.229Z,68.80
2018-05-24T13:24:04.676Z,71.30
2018-05-24T13:27:58.748Z,75.00
2018-05-24T13:31:54.074Z,75.00
2018-05-24T13:35:47.715Z,75.30
2018-05-24T13:39:41.207Z,75.70
2018-05-24T13:43:37.185Z,76.50
2018-05-24T13:47:31.732Z,78.20
2018-05-24T13:51:25.369Z,78.30
2018-05-24T13:55:19.340Z,78.40
2018-05-24T13:59:12.534Z,78.40
2018-05-24T14:03:05.929Z,78.70
2018-05-24T14:07:00.042Z,78.70
2018-05-24T14:10:54.028Z,78.60
2018-05-24T14:14:48.745Z,78.50
2018-05-24T14:18:42.845Z,77.80
2018-05-24T14:22:36.830Z,77.30
2018-05-24T14:26:32.079Z,77.20
2018-05-24T14:30:25.321Z,76.60
2018-05-24T14:34:18.720Z,76.20
2018-05-24T14:38:12.023Z,75.60
2018-05-24T14:42:05.723Z,74.60
2018-05-24T14:46:01.205Z,72.50
2018-05-24T14:49:54.418Z,73.40
2018-05-24T14:53:50.759Z,74.80
2018-05-24T14:57:44.185Z,75.70
2018-05-24T15:01:37.416Z,75.90
2018-05-24T15:05:30.754Z,75.70
2018-05-24T15:09:26.094Z,77.00
2018-05-24T15:13:31.875Z,77.40
2018-05-24T15:17:25.090Z,77.60
2018-05-24T15:21:20.236Z,76.80
2018-05-24T15:25:22.478Z,76.60
2018-05-24T15:29:15.733Z,77.80
2018-05-24T15:33:08.947Z,77.90
2018-05-24T15:37:02.327Z,78.30
2018-05-24T15:40:57.436Z,78.20
2018-05-24T15:44:50.436Z,77.40
2018-05-24T15:48:43.766Z,75.80
2018-05-24T15:52:38.727Z,75.00
2018-05-24T15:56:32.838Z,74.90
2018-05-24T16:00:25.947Z,74.80
2018-05-24T16:04:19.429Z,74.90
2018-05-24T16:08:14.496Z,74.40
2018-05-24T16:12:08.808Z,75.60
2018-05-24T16:16:01.986Z,76.40
2018-05-24T16:19:59.350Z,76.70
2018-05-24T16:23:55.286Z,77.30
2018-05-24T16:27:48.828Z,77.70
2018-05-24T16:31:42.934Z,78.80
2018-05-24T16:35:37.749Z,79.10
2018-05-24T16:39:31.088Z,79.10
2018-05-24T16:43:24.395Z,78.90
2018-05-24T16:47:17.719Z,79.00
2018-05-24T16:51:10.885Z,79.50
2018-05-24T16:55:05.011Z,80.80
2018-05-24T16:59:00.188Z,79.50
2018-05-24T17:02:53.309Z,79.80
2018-05-24T17:06:47.201Z,79.20
2018-05-24T17:10:41.211Z,79.10
2018-05-24T17:14:34.437Z,79.00
2018-05-24T17:18:28.903Z,79.40
2018-05-24T17:22:23.066Z,79.40
2018-05-24T17:26:17.213Z,80.60
2018-05-24T17:30:10.459Z,80.60
2018-05-24T17:34:03.648Z,81.30
2018-05-24T17:37:56.781Z,82.40
2018-05-24T17:41:50.830Z,83.20
2018-05-24T17:45:44.109Z,83.80
2018-05-24T17:49:37.256Z,84.40
2018-05-24T17:53:30.279Z,84.60
2018-05-24T17:57:24.107Z,84.40
2018-05-24T18:01:18.075Z,83.70
2018-05-24T18:05:11.301Z,83.60
2018-05-24T18:09:04.859Z,83.60
2018-05-24T18:12:58.027Z,83.80
2018-05-24T18:16:51.147Z,83.50
2018-05-24T18:20:44.739Z,84.00
2018-05-24T18:24:37.977Z,84.70
2018-05-24T18:28:33.919Z,85.20
2018-05-24T18:32:27.331Z,85.10
2018-05-24T18:36:20.738Z,85.40
2018-05-24T18:40:14.204Z,85.70
2018-05-24T18:44:08.096Z,85.80
2018-05-24T18:48:02.130Z,86.00
2018-05-24T18:51:55.503Z,86.00
2018-05-24T18:55:49.283Z,86.30
2018-05-24T19:09:13.338Z,86.70
2018-05-24T19:13:07.764Z,86.80
2018-05-24T19:17:02.278Z,86.20
2018-05-24T19:20:56.705Z,86.30
2018-05-24T19:24:50.599Z,86.20
2018-05-24T19:28:44.409Z,86.10
2018-05-24T19:32:38.606Z,85.80
2018-05-24T19:36:32.172Z,85.70
2018-05-24T19:40:27.714Z,85.80
2018-05-24T19:44:20.952Z,85.60
2018-05-24T19:48:15.345Z,85.60
2018-05-24T19:52:08.606Z,86.30
2018-05-24T19:56:02.447Z,85.90
2018-05-24T19:59:58.781Z,86.80
2018-05-24T20:03:51.935Z,86.00
2018-05-24T20:07:45.770Z,85.60
2018-05-24T20:11:39.351Z,85.90
2018-05-24T20:15:33.588Z,85.60
2018-05-24T20:19:26.783Z,85.70
2018-05-24T20:23:20.192Z,85.80
2018-05-24T20:27:13.455Z,86.10
2018-05-24T20:31:06.802Z,86.40
2018-05-24T20:34:59.986Z,86.50
2018-05-24T20:38:53.632Z,86.60
2018-05-24T20:42:46.894Z,87.40
2018-05-24T20:46:40.065Z,87.70
2018-05-24T20:50:33.474Z,88.10
2018-05-24T20:54:26.768Z,88.30
2018-05-24T20:58:20.036Z,88.80
2018-05-24T21:02:13.203Z,89.10
2018-05-24T21:06:07.161Z,89.30
2018-05-24T21:10:00.415Z,89.30
2018-05-24T21:13:53.645Z,89.70
2018-05-24T21:17:46.763Z,89.70
2018-05-24T21:21:39.953Z,90.00
2018-05-24T21:25:34.056Z,90.20
2018-05-24T21:29:27.817Z,89.90
2018-05-24T21:33:20.922Z,90.10
2018-05-24T21:37:14.920Z,90.30
2018-05-24T21:41:10.032Z,90.10
2018-05-24T21:45:03.993Z,90.50
2018-05-24T21:48:57.268Z,90.20
2018-05-24T21:52:50.456Z,90.40
2018-05-24T21:56:43.753Z,90.30
2018-05-24T22:00:36.945Z,90.50
2018-05-24T22:04:30.844Z,90.50
2018-05-24T22:08:24.034Z,90.80
2018-05-24T22:12:17.260Z,91.00
2018-05-24T22:16:10.677Z,91.10
2018-05-24T22:20:04.705Z,91.40
2018-05-24T22:23:57.842Z,91.40
2018-05-24T22:27:51.239Z,91.30
2018-05-24T22:31:44.695Z,91.60
2018-05-24T22:35:44.029Z,91.80
2018-05-24T22:39:37.809Z,91.90
2018-05-24T22:43:31.288Z,92.00
2018-05-24T22:47:24.533Z,92.20
2018-05-24T22:51:36.375Z,92.20
2018-05-24T22:55:29.509Z,92.10
2018-05-24T22:59:23.043Z,92.10
2018-05-24T23:03:19.655Z,92.20
2018-05-24T23:07:15.048Z,92.40
2018-05-24T23:11:10.675Z,92.30
2018-05-24T23:15:04.327Z,92.50
2018-05-24T23:18:57.513Z,92.70
2018-05-24T23:22:50.756Z,92.80
2018-05-24T23:26:43.985Z,92.90
2018-05-24T23:30:37.158Z,92.90
2018-05-24T23:34:30.265Z,92.90
2018-05-24T23:38:23.388Z,93.00
2018-05-24T23:42:16.882Z,93.10
2018-05-24T23:46:10.060Z,93.30
2018-05-24T23:50:03.258Z,93.40
2018-05-24T23:53:56.668Z,93.30
2018-05-24T23:57:49.796Z,93.50
